Airfield :
LOGIN :

Register | Disclaimer

   EN    FR    IT 

 










Legend :    VFR   Marginal VFR   IFR   Intensive IFR   Very Intensive IFR
Visi :
Ceiling :
>= 8 km
>= 3000ft
5 to 8 km
1000 to 3000 ft
1500m to 5 km
500 to 1000 ft
800 to 1500m
200 to 500 ft
< 800m
< 200 ft
Symbols :   Thunderstorms  Fog  Heavy snow  Heavy precipitations  Wind > 20 kt
SIGMETs :     Misc.  Thunderstorms  Icing  Turbulence  Mountain Waves  Volcanic Ashes






- Airport Elevation : 27 ft
- IATA code : PMI


LEPA - Palma de Mallorca

CURRENT METAR :
  • 290430Z 06004KT CAVOK 15/14 Q1007 NOSIG

EXPIRED METARs :
  • 290400Z 05003KT CAVOK 15/15 Q1007 NOSIG
  • 290330Z 07003KT CAVOK 15/14 Q1007 NOSIG
  • 290300Z 07003KT CAVOK 15/15 Q1007 NOSIG
  • 290230Z 07003KT CAVOK 16/15 Q1008 NOSIG
  • 290200Z 05003KT CAVOK 16/15 Q1008 NOSIG

TAF TAF LEPA
Valid from the 29 at 00:00 until the 30 at 00:00 UTC


282300Z 2900/2924 VRB03KT 9999 FEW030 TX28/2913Z TN15/2906Z
BECMG 2908/2910 20010KT
BECMG 2917/2920 VRB04KT



MET'MAP, your aeronautical weather chart ! - Copyright ORBIFLY December 2007 - Disclaimer

ORBIFLY MET'MAP TEAM :

Programming & Development : Alexandra Zaïnal
Original concept : Baudouin d'Aumeries
Technical & hardware support : Manuel Goepfert
Assistance : Marc-Olivier Méhu

Contact : metmap@orbifly.com




SOURCES & CREDITS :

   NOAA